createdAt,value
2022-10-19T00:00:46.548Z,9.7
2022-10-19T00:01:46.603Z,9.6
2022-10-19T00:02:46.611Z,9.7
2022-10-19T00:03:46.735Z,10
2022-10-19T00:04:46.719Z,10.1
2022-10-19T00:05:46.829Z,10.1
2022-10-19T00:06:46.849Z,10.2
2022-10-19T00:07:46.888Z,10.2
2022-10-19T00:08:46.953Z,10
2022-10-19T00:09:47.003Z,10.2
2022-10-19T00:10:47.065Z,10.5
2022-10-19T00:11:48.119Z,10.5
2022-10-19T00:13:47.235Z,10.3
2022-10-19T00:14:47.329Z,10.2
2022-10-19T00:15:47.405Z,10
2022-10-19T00:16:47.422Z,10
2022-10-19T00:17:47.466Z,9.9
2022-10-19T00:18:47.507Z,10.2
2022-10-19T00:19:47.563Z,10.2
2022-10-19T00:20:47.621Z,10.2
2022-10-19T00:21:47.723Z,10.3
2022-10-19T00:22:47.698Z,10.3
2022-10-19T00:23:47.762Z,10.3
2022-10-19T00:24:47.848Z,10.5
2022-10-19T00:25:47.906Z,10.5
2022-10-19T00:26:47.941Z,10.5
2022-10-19T00:27:48.072Z,10.6
2022-10-19T00:28:48.140Z,10.6
2022-10-19T00:29:48.160Z,9.8
2022-10-19T00:31:48.302Z,9.6
2022-10-19T00:32:48.319Z,9.8
2022-10-19T00:33:48.389Z,9.9
2022-10-19T00:34:48.461Z,10
2022-10-19T00:35:48.482Z,9.9
2022-10-19T00:36:48.563Z,9.9
2022-10-19T00:37:53.606Z,10
2022-10-19T00:38:48.908Z,10
2022-10-19T00:39:48.739Z,9.8
2022-10-19T00:40:48.775Z,9.9
2022-10-19T00:41:48.808Z,9.5
2022-10-19T00:42:48.855Z,9.4
2022-10-19T00:43:48.894Z,9.4
2022-10-19T00:44:48.974Z,9.6
2022-10-19T00:45:49.031Z,9.6
2022-10-19T00:46:49.076Z,9.7
2022-10-19T00:47:49.140Z,9.8
2022-10-19T00:49:49.245Z,9.6
2022-10-19T00:50:49.322Z,9.4
2022-10-19T00:51:49.318Z,9.4
2022-10-19T00:52:49.383Z,9.3
2022-10-19T00:53:49.447Z,9.3
2022-10-19T00:54:49.500Z,9.4
2022-10-19T00:55:49.619Z,9.4
2022-10-19T00:56:49.641Z,9.4
2022-10-19T00:58:49.800Z,9.3
2022-10-19T00:59:49.801Z,9.4
2022-10-19T01:00:49.944Z,9.3
2022-10-19T01:01:49.899Z,9.4
2022-10-19T01:02:49.978Z,9.2
2022-10-19T01:03:50.056Z,9.1
2022-10-19T01:04:50.063Z,9.1
2022-10-19T01:05:50.150Z,9.2
2022-10-19T01:07:50.269Z,9.1
2022-10-19T01:08:50.347Z,9
2022-10-19T01:09:50.391Z,9
2022-10-19T01:10:50.462Z,9.1
2022-10-19T01:11:50.475Z,9.2
2022-10-19T01:12:50.515Z,9.3
2022-10-19T01:13:50.572Z,9.4
2022-10-19T01:14:50.656Z,9.3
2022-10-19T01:15:50.722Z,9
2022-10-19T01:16:50.746Z,9
2022-10-19T01:17:50.790Z,9.1
2022-10-19T01:18:50.875Z,9.1
2022-10-19T01:19:50.938Z,9.1
2022-10-19T01:20:50.994Z,9
2022-10-19T01:21:51.041Z,8.9
2022-10-19T01:22:51.125Z,9.1
2022-10-19T01:23:51.150Z,9.2
2022-10-19T01:24:51.272Z,9.3
2022-10-19T01:25:51.263Z,9.1
2022-10-19T01:26:51.461Z,8.9
2022-10-19T01:27:51.381Z,9.1
2022-10-19T01:28:51.454Z,9
2022-10-19T01:29:51.476Z,9
2022-10-19T01:30:51.547Z,9
2022-10-19T01:31:51.577Z,9.1
2022-10-19T01:32:51.624Z,9
2022-10-19T01:33:51.751Z,9
2022-10-19T01:34:51.725Z,9
2022-10-19T01:35:51.818Z,8.9
2022-10-19T01:36:51.834Z,8.9
2022-10-19T01:37:51.903Z,9
2022-10-19T01:38:51.955Z,9.1
2022-10-19T01:39:52.012Z,9.2
2022-10-19T01:40:52.102Z,9.3
2022-10-19T01:41:52.154Z,9.2
2022-10-19T01:42:52.259Z,9.1
2022-10-19T01:43:52.243Z,9
2022-10-19T01:44:52.310Z,9.1
2022-10-19T01:45:52.374Z,9
2022-10-19T01:46:52.429Z,9
2022-10-19T01:47:52.461Z,8.9
2022-10-19T01:48:52.531Z,8.9
2022-10-19T01:49:52.617Z,8.6
2022-10-19T01:50:52.680Z,8.6
2022-10-19T01:51:52.839Z,8.6
2022-10-19T01:52:52.799Z,8.7
2022-10-19T01:53:52.827Z,8.8
2022-10-19T01:54:52.884Z,8.9
2022-10-19T01:55:53.004Z,8.9
2022-10-19T01:56:53.040Z,9
2022-10-19T01:57:53.091Z,9.1
2022-10-19T01:58:53.160Z,9.2
2022-10-19T01:59:53.219Z,9
2022-10-19T02:00:53.464Z,9.1
2022-10-19T02:01:53.315Z,9.1
2022-10-19T02:02:53.355Z,9.1
2022-10-19T02:03:53.391Z,8.8
2022-10-19T02:04:53.464Z,8.8
2022-10-19T02:05:53.559Z,8.8
2022-10-19T02:06:53.586Z,8.6
2022-10-19T02:07:53.718Z,8.8
2022-10-19T02:08:53.698Z,8.7
2022-10-19T02:09:53.748Z,8.7
2022-10-19T02:10:53.797Z,8.8
2022-10-19T02:11:56.125Z,8.9
2022-10-19T02:12:53.887Z,8.9
2022-10-19T02:13:53.950Z,8.7
2022-10-19T02:14:54.016Z,8.9
2022-10-19T02:15:54.088Z,9
2022-10-19T02:16:54.093Z,9.2
2022-10-19T02:17:54.141Z,9.2
2022-10-19T02:18:54.188Z,8.8
2022-10-19T02:19:54.218Z,8.5
2022-10-19T02:20:54.294Z,8.5
2022-10-19T02:21:54.361Z,8.4
2022-10-19T02:22:54.413Z,8.4
2022-10-19T02:23:54.449Z,8.4
2022-10-19T02:24:54.466Z,8.4
2022-10-19T02:25:54.543Z,8.4
2022-10-19T02:26:54.571Z,8.5
2022-10-19T02:27:54.598Z,8.5
2022-10-19T02:28:54.671Z,8.5
2022-10-19T02:29:54.753Z,8.4
2022-10-19T02:30:54.819Z,8.2
2022-10-19T02:31:54.882Z,8.2
2022-10-19T02:32:54.905Z,8.3
2022-10-19T02:33:54.955Z,8.4
2022-10-19T02:34:55.077Z,8.2
2022-10-19T02:35:55.139Z,8.3
2022-10-19T02:36:55.193Z,8.3
2022-10-19T02:37:55.250Z,8.3
2022-10-19T02:38:55.290Z,8.4
2022-10-19T02:39:55.381Z,8.4
2022-10-19T02:40:55.420Z,8.4
2022-10-19T02:41:55.525Z,8.4
2022-10-19T02:42:55.497Z,8.2
2022-10-19T02:43:55.572Z,8.2
2022-10-19T02:44:55.651Z,8.2
2022-10-19T02:45:55.685Z,8.1
2022-10-19T02:46:55.761Z,8
2022-10-19T02:47:55.791Z,8
2022-10-19T02:48:55.834Z,8
2022-10-19T02:49:55.890Z,8.2
2022-10-19T02:50:55.944Z,8.1
2022-10-19T02:51:55.989Z,8
2022-10-19T02:52:56.021Z,8.1
2022-10-19T02:53:56.792Z,8
2022-10-19T02:54:56.155Z,7.9
2022-10-19T02:55:56.224Z,7.9
2022-10-19T02:56:56.222Z,7.9
2022-10-19T02:57:56.303Z,7.9
2022-10-19T02:58:56.370Z,8
2022-10-19T02:59:56.452Z,8
2022-10-19T03:00:56.514Z,8.1
2022-10-19T03:01:56.580Z,8.3
2022-10-19T03:02:56.587Z,8.3
2022-10-19T03:03:56.658Z,8.3
2022-10-19T03:04:56.742Z,8.3
2022-10-19T03:05:56.761Z,8.3
2022-10-19T03:06:56.805Z,8.4
2022-10-19T03:07:56.848Z,8.3
2022-10-19T03:08:56.900Z,8.4
2022-10-19T03:09:56.932Z,8.4
2022-10-19T03:10:57.054Z,8.4
2022-10-19T03:11:57.118Z,8.4
2022-10-19T03:12:57.135Z,8.3
2022-10-19T03:13:57.242Z,8
2022-10-19T03:14:57.294Z,7.9
2022-10-19T03:15:57.362Z,8
2022-10-19T03:16:57.387Z,8
2022-10-19T03:17:57.450Z,7.9
2022-10-19T03:18:57.519Z,7.7
2022-10-19T03:19:57.590Z,7.8
2022-10-19T03:20:58.921Z,7.8
2022-10-19T03:21:57.721Z,7.8
2022-10-19T03:22:57.792Z,7.6
2022-10-19T03:23:57.845Z,7.8
2022-10-19T03:24:57.889Z,7.7
2022-10-19T03:25:57.987Z,7.9
2022-10-19T03:26:58.006Z,7.9
2022-10-19T03:27:58.096Z,7.8
2022-10-19T03:28:58.165Z,7.9
2022-10-19T03:29:58.228Z,7.9
2022-10-19T03:30:58.291Z,8.1
2022-10-19T03:31:58.361Z,8
2022-10-19T03:32:58.432Z,8
2022-10-19T03:33:58.474Z,7.9
2022-10-19T03:34:58.544Z,7.8
2022-10-19T03:35:58.596Z,7.6
2022-10-19T03:36:58.643Z,7.6
2022-10-19T03:37:58.764Z,7.6
2022-10-19T03:38:58.782Z,7.7
2022-10-19T03:39:58.858Z,7.7
2022-10-19T03:41:01.412Z,8
2022-10-19T03:41:58.990Z,8
2022-10-19T03:42:59.000Z,8
2022-10-19T03:44:45.894Z,8
2022-10-19T03:44:59.140Z,8.2
2022-10-19T03:45:59.154Z,8.2
2022-10-19T03:46:59.282Z,8.3
2022-10-19T03:47:59.320Z,8.2
2022-10-19T03:48:59.385Z,8.2
2022-10-19T03:49:59.424Z,8.2
2022-10-19T03:50:59.508Z,8.2
2022-10-19T03:51:59.549Z,8.2
2022-10-19T03:52:59.642Z,8.1
2022-10-19T03:53:59.662Z,8.1
2022-10-19T03:54:59.735Z,8.2
2022-10-19T03:55:59.807Z,8.2
2022-10-19T03:56:59.834Z,8.2
2022-10-19T03:57:59.874Z,8.1
2022-10-19T03:58:59.964Z,8
2022-10-19T04:00:00.052Z,7.9
2022-10-19T04:01:00.077Z,7.8
2022-10-19T04:02:00.155Z,7.7
2022-10-19T04:03:00.151Z,7.8
2022-10-19T04:04:00.191Z,7.8
2022-10-19T04:05:00.225Z,7.8
2022-10-19T04:06:00.305Z,8
2022-10-19T04:07:00.371Z,8.1
2022-10-19T04:08:00.410Z,7.8
2022-10-19T04:09:00.533Z,7.8
2022-10-19T04:10:00.620Z,8
2022-10-19T04:11:00.689Z,8.1
2022-10-19T04:12:00.885Z,7.9
2022-10-19T04:13:00.927Z,7.9
2022-10-19T04:14:01.062Z,8
2022-10-19T04:15:01.045Z,7.9
2022-10-19T04:16:01.083Z,8
2022-10-19T04:17:01.119Z,8
2022-10-19T04:18:01.235Z,7.8
2022-10-19T04:19:01.269Z,7.8
2022-10-19T04:20:01.381Z,7.7
2022-10-19T04:21:01.378Z,7.7
2022-10-19T04:22:01.761Z,7.7
2022-10-19T04:23:01.506Z,7.9
2022-10-19T04:24:01.548Z,8.1
2022-10-19T04:25:01.608Z,8.3
2022-10-19T04:26:01.666Z,8.4
2022-10-19T04:27:01.768Z,8.3
2022-10-19T04:28:01.770Z,8.2
2022-10-19T04:29:01.840Z,8.1
2022-10-19T04:30:01.895Z,8.1
2022-10-19T04:31:39.993Z,7.9
2022-10-19T04:32:01.960Z,7.7
2022-10-19T04:33:02.008Z,7.6
2022-10-19T04:34:02.123Z,7.6
2022-10-19T04:35:02.149Z,7.5
2022-10-19T04:36:02.269Z,7.5
2022-10-19T04:37:02.287Z,7.7
2022-10-19T04:38:14.781Z,7.7
2022-10-19T04:39:02.385Z,7.7
2022-10-19T04:40:02.481Z,7.8
2022-10-19T04:41:02.506Z,7.8
2022-10-19T04:42:02.571Z,7.9
2022-10-19T04:43:02.604Z,7.8
2022-10-19T04:44:02.697Z,7.8
2022-10-19T04:45:02.748Z,7.8
2022-10-19T04:46:02.824Z,7.9
2022-10-19T04:47:02.922Z,7.9
2022-10-19T04:48:02.916Z,7.9
2022-10-19T04:49:02.949Z,8
2022-10-19T04:50:03.047Z,8
2022-10-19T04:51:03.094Z,8
2022-10-19T04:52:03.185Z,8
2022-10-19T04:53:03.204Z,7.8
2022-10-19T04:54:03.276Z,7.8
2022-10-19T04:55:03.311Z,7.9
2022-10-19T04:56:03.375Z,7.9
2022-10-19T04:57:08.475Z,7.8
2022-10-19T04:58:03.494Z,7.9
2022-10-19T04:59:03.526Z,7.7
2022-10-19T05:00:03.633Z,7.6
2022-10-19T05:01:03.700Z,7.7
2022-10-19T05:02:03.815Z,7.8
2022-10-19T05:03:04.891Z,7.7
2022-10-19T05:04:03.865Z,7.6
2022-10-19T05:05:03.935Z,7.4
2022-10-19T05:06:03.997Z,7.4
2022-10-19T05:07:04.096Z,7.3
2022-10-19T05:08:04.110Z,7.3
2022-10-19T05:09:04.145Z,7.2
2022-10-19T05:10:04.227Z,7.1
2022-10-19T05:11:04.281Z,7.2
2022-10-19T05:12:04.359Z,7.2
2022-10-19T05:13:04.409Z,7.1
2022-10-19T05:14:04.511Z,7.1
2022-10-19T05:15:14.562Z,7
2022-10-19T05:16:04.595Z,7.1
2022-10-19T05:17:04.658Z,7.2
2022-10-19T05:18:04.689Z,7.2
2022-10-19T05:19:04.752Z,7.1
2022-10-19T05:20:35.343Z,7
2022-10-19T05:21:04.802Z,7
2022-10-19T05:22:04.876Z,7
2022-10-19T05:23:07.093Z,6.9
2022-10-19T05:24:05.190Z,7
2022-10-19T05:25:05.019Z,7
2022-10-19T05:26:10.055Z,7
2022-10-19T05:27:05.091Z,6.9
2022-10-19T05:28:05.194Z,6.8
2022-10-19T05:29:05.335Z,6.8
2022-10-19T05:30:05.502Z,6.7
2022-10-19T05:31:05.373Z,6.8
2022-10-19T05:32:05.413Z,6.8
2022-10-19T05:33:05.456Z,6.8
2022-10-19T05:35:05.604Z,6.8
2022-10-19T05:36:05.576Z,7.1
2022-10-19T05:37:05.617Z,7.3
2022-10-19T05:38:05.738Z,7.1
2022-10-19T05:39:05.762Z,7
2022-10-19T05:40:06.321Z,7.1
2022-10-19T05:41:06.373Z,7.1
2022-10-19T05:42:05.930Z,7
2022-10-19T05:43:05.995Z,7
2022-10-19T05:44:06.069Z,7.1
2022-10-19T05:45:06.088Z,7.2
2022-10-19T05:46:06.157Z,7.1
2022-10-19T05:47:06.253Z,7.1
2022-10-19T05:48:06.309Z,7
2022-10-19T05:49:06.368Z,6.9
2022-10-19T05:50:06.444Z,6.9
2022-10-19T05:51:10.603Z,6.8
2022-10-19T05:52:06.484Z,6.8
2022-10-19T05:53:06.563Z,6.7
2022-10-19T05:54:06.607Z,6.8
2022-10-19T05:55:11.668Z,6.9
2022-10-19T05:56:06.730Z,6.9
2022-10-19T05:57:18.098Z,6.9
2022-10-19T05:58:06.865Z,6.8
2022-10-19T05:59:11.877Z,6.8
2022-10-19T06:00:06.921Z,6.8
2022-10-19T06:01:07.009Z,6.8
2022-10-19T06:02:07.082Z,6.8
2022-10-19T06:03:07.109Z,6.8
2022-10-19T06:04:07.245Z,6.8
2022-10-19T06:05:07.195Z,6.8
2022-10-19T06:06:07.273Z,6.8
2022-10-19T06:07:07.316Z,6.7
2022-10-19T06:08:15.516Z,6.8
2022-10-19T06:09:07.945Z,6.7
2022-10-19T06:10:07.584Z,6.7
2022-10-19T06:11:07.571Z,6.7
2022-10-19T06:12:08.099Z,6.6
2022-10-19T06:13:12.297Z,6.7
2022-10-19T06:14:26.083Z,6.7
2022-10-19T06:15:07.785Z,6.8
2022-10-19T06:16:14.378Z,6.8
2022-10-19T06:17:13.616Z,6.9
2022-10-19T06:18:08.004Z,6.8
2022-10-19T06:19:09.152Z,6.8
2022-10-19T06:20:08.106Z,6.9
2022-10-19T06:21:08.149Z,6.8
2022-10-19T06:22:08.266Z,6.9
2022-10-19T06:23:13.848Z,6.9
2022-10-19T06:24:08.586Z,7
2022-10-19T06:25:08.407Z,6.9
2022-10-19T06:26:08.486Z,6.9
2022-10-19T06:27:14.123Z,6.7
2022-10-19T06:28:08.561Z,6.7
2022-10-19T06:29:08.640Z,6.7
2022-10-19T06:30:08.670Z,6.7
2022-10-19T06:31:09.435Z,7.1
2022-10-19T06:32:08.847Z,7.1
2022-10-19T06:33:08.907Z,7
2022-10-19T06:34:08.970Z,6.9
2022-10-19T06:35:08.971Z,7
2022-10-19T06:36:12.233Z,6.9
2022-10-19T06:37:09.073Z,7
2022-10-19T06:38:09.136Z,7.1
2022-10-19T06:39:09.154Z,7.1
2022-10-19T06:40:09.252Z,7.2
2022-10-19T06:41:09.254Z,7.2
2022-10-19T06:42:09.315Z,7.3
2022-10-19T06:43:09.370Z,7.2
2022-10-19T06:44:09.421Z,7.4
2022-10-19T06:45:09.464Z,7.5
2022-10-19T06:46:09.553Z,7.5
2022-10-19T06:47:09.676Z,7.7
2022-10-19T06:48:09.655Z,8
2022-10-19T06:49:09.726Z,8
2022-10-19T06:50:09.821Z,8.2
2022-10-19T06:51:09.894Z,8.5
2022-10-19T06:52:14.878Z,8.3
2022-10-19T06:53:14.969Z,8.4
2022-10-19T06:54:10.015Z,8.1
2022-10-19T06:55:10.068Z,8.2
2022-10-19T06:56:10.106Z,7.9
2022-10-19T06:57:10.173Z,7.9
2022-10-19T06:58:10.185Z,7.9
2022-10-19T06:59:10.230Z,8
2022-10-19T07:00:14.291Z,8
2022-10-19T07:01:10.485Z,8.1
2022-10-19T07:02:10.459Z,8.2
2022-10-19T07:03:10.520Z,8.2
2022-10-19T07:04:10.631Z,8.2
2022-10-19T07:05:15.631Z,8.3
2022-10-19T07:06:10.682Z,8.3
2022-10-19T07:07:10.751Z,8.2
2022-10-19T07:08:10.847Z,8.3
2022-10-19T07:09:10.885Z,8.3
2022-10-19T07:10:10.922Z,8.3
2022-10-19T07:11:10.930Z,8.4
2022-10-19T07:12:11.009Z,8.5
2022-10-19T07:13:11.078Z,8.4
2022-10-19T07:14:11.143Z,8.6
2022-10-19T07:15:11.171Z,8.5
2022-10-19T07:16:14.415Z,8.6
2022-10-19T07:17:11.376Z,8.4
2022-10-19T07:18:11.346Z,8.4
2022-10-19T07:19:11.955Z,8.5
2022-10-19T07:20:11.476Z,8.3
2022-10-19T07:21:11.489Z,8.2
2022-10-19T07:22:14.448Z,8.3
2022-10-19T07:23:11.618Z,8.4
2022-10-19T07:24:11.726Z,8.5
2022-10-19T07:25:11.771Z,8.6
2022-10-19T07:26:11.812Z,8.9
2022-10-19T07:27:12.881Z,8.9
2022-10-19T07:28:14.261Z,9.2
2022-10-19T07:29:12.011Z,9.4
2022-10-19T07:30:14.736Z,9.3
2022-10-19T07:33:18.784Z,8.4
2022-10-19T07:34:18.839Z,8.7
2022-10-19T07:35:20.052Z,8.9
2022-10-19T07:36:19.298Z,8.7
2022-10-19T07:37:20.049Z,8.7
2022-10-19T07:38:19.041Z,8.8
2022-10-19T07:39:19.115Z,8.7
2022-10-19T07:40:19.185Z,8.8
2022-10-19T07:41:19.237Z,8.7
2022-10-19T07:42:19.525Z,8.7
2022-10-19T07:43:19.323Z,8.7
2022-10-19T07:44:19.426Z,8.8
2022-10-19T07:45:19.474Z,9.1
2022-10-19T07:46:24.520Z,9.2
2022-10-19T07:47:19.565Z,9.3
2022-10-19T07:48:19.653Z,9.2
2022-10-19T07:49:19.702Z,9.1
2022-10-19T07:50:19.730Z,9
2022-10-19T07:51:19.865Z,9
2022-10-19T07:52:19.864Z,9.1
2022-10-19T07:53:19.890Z,9.2
2022-10-19T07:54:20.004Z,9.2
2022-10-19T07:55:25.054Z,9
2022-10-19T07:56:20.078Z,9.1
2022-10-19T07:57:20.157Z,9.3
2022-10-19T07:58:20.217Z,9.6
2022-10-19T07:59:20.297Z,9.4
2022-10-19T08:00:20.333Z,9.3
2022-10-19T08:01:20.370Z,9.5
2022-10-19T08:02:20.572Z,9.6
2022-10-19T08:05:20.823Z,9.5
2022-10-19T08:06:20.686Z,9.5
2022-10-19T08:07:20.734Z,9.3
2022-10-19T08:08:20.830Z,9.4
2022-10-19T08:09:47.683Z,9.5
2022-10-19T08:10:20.931Z,9.6
2022-10-19T08:11:20.982Z,9.4
2022-10-19T08:12:21.015Z,9.5
2022-10-19T08:13:21.094Z,9.6
2022-10-19T08:14:21.197Z,9.6
2022-10-19T08:15:21.177Z,9.5
2022-10-19T08:16:21.235Z,9.3
2022-10-19T08:17:21.277Z,9.3
2022-10-19T08:18:21.399Z,9.5
2022-10-19T08:19:21.434Z,9.7
2022-10-19T08:20:21.486Z,9.8
2022-10-19T08:21:21.498Z,9.7
2022-10-19T08:22:21.588Z,9.6
2022-10-19T08:23:21.614Z,9.7
2022-10-19T08:24:21.693Z,9.8
2022-10-19T08:25:21.712Z,9.8
2022-10-19T08:26:21.790Z,9.8
2022-10-19T08:27:21.877Z,10
2022-10-19T08:28:21.901Z,10
2022-10-19T08:29:21.948Z,9.8
2022-10-19T08:30:22.389Z,10
2022-10-19T08:31:22.320Z,10.1
2022-10-19T08:32:22.204Z,10.1
2022-10-19T08:33:22.209Z,10.2
2022-10-19T08:34:22.437Z,10.3
2022-10-19T08:35:22.389Z,10.2
2022-10-19T08:36:22.364Z,10.1
2022-10-19T08:37:39.892Z,10.1
2022-10-19T08:38:22.513Z,10.3
2022-10-19T08:39:22.656Z,10.5
2022-10-19T08:40:22.681Z,10.5
2022-10-19T08:41:22.734Z,10.5
2022-10-19T08:42:22.781Z,10.5
2022-10-19T08:43:22.895Z,10.6
2022-10-19T08:44:22.899Z,10.5
2022-10-19T08:45:22.946Z,10.5
2022-10-19T08:46:23.033Z,10.5
2022-10-19T08:47:23.509Z,10.5
2022-10-19T08:48:23.161Z,10.5
2022-10-19T08:49:23.242Z,10.7
2022-10-19T08:51:42.162Z,10.8
2022-10-19T08:52:23.377Z,10.8
2022-10-19T08:53:23.487Z,10.8
2022-10-19T08:54:23.517Z,10.9
2022-10-19T08:55:23.902Z,11
2022-10-19T08:56:39.255Z,11
2022-10-19T08:57:23.713Z,10.9
2022-10-19T08:58:23.767Z,10.9
2022-10-19T08:59:23.848Z,11.1
2022-10-19T09:00:23.855Z,11.2
2022-10-19T09:01:23.900Z,11.1
2022-10-19T09:02:23.977Z,11.3
2022-10-19T09:03:31.813Z,11.4
2022-10-19T09:04:24.097Z,11.4
2022-10-19T09:05:24.158Z,11.6
2022-10-19T09:06:24.216Z,11.6
2022-10-19T09:07:24.272Z,11.6
2022-10-19T09:08:24.380Z,11.8
2022-10-19T09:09:24.363Z,12
2022-10-19T09:10:24.445Z,12.2
2022-10-19T09:11:24.490Z,12.2
2022-10-19T09:12:24.537Z,12.1
2022-10-19T09:13:24.974Z,12.5
2022-10-19T09:14:24.642Z,12.5
2022-10-19T09:15:24.744Z,12.4
2022-10-19T09:16:24.885Z,12.5
2022-10-19T09:17:24.929Z,12.4
2022-10-19T09:18:24.963Z,12.3
2022-10-19T09:19:25.044Z,12.3
2022-10-19T09:20:25.127Z,12.4
2022-10-19T09:21:28.216Z,12.6
2022-10-19T09:22:25.349Z,13
2022-10-19T09:23:25.232Z,13.1
2022-10-19T09:24:25.289Z,13.2
2022-10-19T09:25:25.330Z,13.1
2022-10-19T09:26:25.382Z,12.9
2022-10-19T09:27:25.483Z,13
2022-10-19T09:28:27.307Z,13.4
2022-10-19T09:29:25.573Z,13.6
2022-10-19T09:30:25.637Z,13.6
2022-10-19T09:31:28.082Z,13.7
2022-10-19T09:32:25.740Z,13.7
2022-10-19T09:33:25.780Z,14.1
2022-10-19T09:34:25.835Z,14.2
2022-10-19T09:35:25.882Z,14.1
2022-10-19T09:36:33.178Z,14.3
2022-10-19T09:37:26.878Z,14.1
2022-10-19T09:38:26.049Z,14
2022-10-19T09:39:27.117Z,14.1
2022-10-19T09:40:26.655Z,14.2
2022-10-19T09:41:26.272Z,14
2022-10-19T09:42:26.266Z,14
2022-10-19T09:43:26.329Z,14.1
2022-10-19T09:44:26.401Z,14
2022-10-19T09:45:26.425Z,14.2
2022-10-19T09:46:26.505Z,14
2022-10-19T09:47:26.597Z,13.8
2022-10-19T09:48:26.588Z,13.9
2022-10-19T09:49:26.677Z,14.3
2022-10-19T09:50:26.675Z,14.3
2022-10-19T09:51:26.733Z,14.5
2022-10-19T09:52:26.803Z,14.9
2022-10-19T09:53:26.856Z,14.9
2022-10-19T09:54:26.904Z,15.2
2022-10-19T09:55:26.980Z,15
2022-10-19T09:56:26.991Z,14.8
2022-10-19T09:57:27.077Z,14.8
2022-10-19T09:58:29.087Z,14.9
2022-10-19T09:59:27.178Z,15.6
2022-10-19T10:00:27.245Z,15.3
2022-10-19T10:01:33.153Z,14.7
2022-10-19T10:02:27.379Z,14.8
2022-10-19T10:03:27.448Z,15.4
2022-10-19T10:04:27.478Z,16.1
2022-10-19T10:05:27.521Z,16.2
2022-10-19T10:06:27.631Z,16.1
2022-10-19T10:07:27.714Z,15.8
2022-10-19T10:08:27.760Z,15.3
2022-10-19T10:09:27.808Z,15.6
2022-10-19T10:10:29.648Z,15.7
2022-10-19T10:11:28.579Z,15.9
2022-10-19T10:12:27.918Z,16.2
2022-10-19T10:13:27.954Z,15.9
2022-10-19T10:14:28.022Z,15.5
2022-10-19T10:15:28.093Z,15.5
2022-10-19T10:16:28.157Z,15.7
2022-10-19T10:17:28.174Z,16
2022-10-19T10:18:28.258Z,16.1
2022-10-19T10:19:28.371Z,16.3
2022-10-19T10:20:28.427Z,16.8
2022-10-19T10:21:28.758Z,16.7
2022-10-19T10:22:28.519Z,16.8
2022-10-19T10:23:28.567Z,16.7
2022-10-19T10:24:28.646Z,16.5
2022-10-19T10:25:28.727Z,16.1
2022-10-19T10:26:28.814Z,16.2
2022-10-19T10:27:34.449Z,16.8
2022-10-19T10:28:28.853Z,16.5
2022-10-19T10:29:28.929Z,16.1
2022-10-19T10:30:28.963Z,16.2
2022-10-19T10:31:29.064Z,16.4
2022-10-19T10:32:29.098Z,16.8
2022-10-19T10:33:45.529Z,16.9
2022-10-19T10:34:45.844Z,17
2022-10-19T10:35:29.301Z,17.3
2022-10-19T10:36:29.317Z,16.9
2022-10-19T10:37:29.378Z,16.7
2022-10-19T10:38:29.443Z,16.7
2022-10-19T10:39:29.527Z,16.7
2022-10-19T10:40:29.521Z,16.6
2022-10-19T10:41:29.585Z,16.8
2022-10-19T10:42:29.641Z,17.1
2022-10-19T10:43:29.682Z,16.7
2022-10-19T10:44:29.765Z,16.9
2022-10-19T10:45:29.866Z,17.5
2022-10-19T10:46:29.889Z,17.3
2022-10-19T10:47:30.180Z,17
2022-10-19T10:48:30.005Z,17.6
2022-10-19T10:49:30.424Z,17.7
2022-10-19T10:50:30.097Z,17.1
2022-10-19T10:51:32.036Z,17.3
2022-10-19T10:52:30.191Z,17.6
2022-10-19T10:53:30.263Z,18.4
2022-10-19T10:54:30.306Z,17.8
2022-10-19T10:55:30.371Z,17.3
2022-10-19T10:56:30.422Z,17.1
2022-10-19T10:57:30.482Z,16.9
2022-10-19T10:58:30.562Z,16.7
2022-10-19T10:59:30.625Z,17
2022-10-19T11:00:30.708Z,17.1
2022-10-19T11:01:30.943Z,16.5
2022-10-19T11:02:30.882Z,16.7
2022-10-19T11:03:30.946Z,16.6
2022-10-19T11:04:31.000Z,16.6
2022-10-19T11:05:31.010Z,16.7
2022-10-19T11:06:31.086Z,17
2022-10-19T11:07:31.197Z,17.3
2022-10-19T11:08:31.230Z,17.4
2022-10-19T11:09:32.028Z,17.2
2022-10-19T11:10:31.303Z,16.9
2022-10-19T11:11:31.341Z,17
2022-10-19T11:12:32.877Z,17.3
2022-10-19T11:13:32.719Z,17.4
2022-10-19T11:14:31.532Z,17.6
2022-10-19T11:15:32.369Z,17.8
2022-10-19T11:16:31.620Z,17.9
2022-10-19T11:17:31.998Z,18.1
2022-10-19T11:18:31.778Z,18.3
2022-10-19T11:19:31.903Z,18.1
2022-10-19T11:20:31.895Z,18.2
2022-10-19T11:21:31.972Z,18
2022-10-19T11:22:31.984Z,17.6
2022-10-19T11:23:32.077Z,18
2022-10-19T11:24:32.158Z,18.1
2022-10-19T11:25:32.180Z,18
2022-10-19T11:26:32.239Z,18
2022-10-19T11:27:32.498Z,18
2022-10-19T11:28:32.349Z,18.5
2022-10-19T11:29:32.799Z,18.5
2022-10-19T11:30:36.180Z,18.5
2022-10-19T11:31:32.511Z,17.8
2022-10-19T11:32:32.947Z,17.6
2022-10-19T11:33:33.670Z,18.1
2022-10-19T11:34:32.696Z,18.3
2022-10-19T11:35:32.779Z,18.5
2022-10-19T11:36:34.694Z,18.5
2022-10-19T11:37:33.174Z,18.8
2022-10-19T11:38:32.920Z,19
2022-10-19T11:39:35.289Z,18.9
2022-10-19T11:40:33.056Z,19
2022-10-19T11:41:33.067Z,18.8
2022-10-19T11:42:34.166Z,19
2022-10-19T11:43:33.242Z,19.2
2022-10-19T11:44:33.260Z,19
2022-10-19T11:45:33.325Z,19.3
2022-10-19T11:46:33.392Z,19.2
2022-10-19T11:47:33.653Z,19.3
2022-10-19T11:48:34.286Z,18.9
2022-10-19T11:49:33.657Z,18.7
2022-10-19T11:50:33.649Z,18.5
2022-10-19T11:51:34.772Z,18.1
2022-10-19T11:52:33.914Z,18.2
2022-10-19T11:53:33.828Z,18.3
2022-10-19T11:54:39.237Z,18.2
2022-10-19T11:55:33.986Z,18.2
2022-10-19T11:56:39.355Z,17.9
2022-10-19T11:57:36.746Z,18.2
2022-10-19T11:58:35.124Z,18.4
2022-10-19T11:59:34.167Z,18.5
2022-10-19T12:00:39.864Z,18.4
2022-10-19T12:01:34.297Z,18.5
2022-10-19T12:02:34.656Z,18.7
2022-10-19T12:03:34.880Z,18.5
2022-10-19T12:04:34.478Z,18.6
2022-10-19T12:05:34.533Z,18.8
2022-10-19T12:06:38.180Z,18.9
2022-10-19T12:07:34.639Z,19
2022-10-19T12:08:34.753Z,19
2022-10-19T12:09:35.007Z,18.8
2022-10-19T12:10:34.854Z,18.8
2022-10-19T12:11:34.861Z,18.8
2022-10-19T12:12:39.947Z,18.7
2022-10-19T12:13:35.056Z,18.9
2022-10-19T12:14:35.115Z,19
2022-10-19T12:15:40.527Z,19.1
2022-10-19T12:16:35.217Z,19.6
2022-10-19T12:17:35.499Z,19.5
2022-10-19T12:18:39.520Z,19.2
2022-10-19T12:19:35.357Z,19.4
2022-10-19T12:20:35.448Z,19.1
2022-10-19T12:21:36.347Z,18.9
2022-10-19T12:22:35.563Z,18.8
2022-10-19T12:23:35.587Z,19
2022-10-19T12:24:35.649Z,19
2022-10-19T12:25:35.733Z,19.3
2022-10-19T12:26:35.827Z,19.6
2022-10-19T12:27:38.908Z,19.8
2022-10-19T12:28:35.900Z,19.5
2022-10-19T12:29:35.939Z,19.5
2022-10-19T12:30:38.626Z,19.3
2022-10-19T12:31:36.027Z,19.1
2022-10-19T12:32:36.055Z,19.3
2022-10-19T12:33:39.668Z,19.3
2022-10-19T12:34:36.199Z,19.6
2022-10-19T12:35:36.281Z,19.5
2022-10-19T12:36:36.355Z,19.8
2022-10-19T12:37:36.665Z,19.9
2022-10-19T12:38:37.824Z,20
2022-10-19T12:39:36.469Z,19.5
2022-10-19T12:40:36.556Z,19.4
2022-10-19T12:41:36.605Z,19.3
2022-10-19T12:42:38.535Z,19.5
2022-10-19T12:43:36.699Z,19.5
2022-10-19T12:44:36.744Z,19.7
2022-10-19T12:45:39.825Z,19.5
2022-10-19T12:46:36.985Z,19.4
2022-10-19T12:47:43.423Z,19.4
2022-10-19T12:48:37.818Z,19.5
2022-10-19T12:49:37.215Z,19.5
2022-10-19T12:50:38.433Z,19.8
2022-10-19T12:51:38.034Z,19.9
2022-10-19T12:52:37.688Z,19.7
2022-10-19T12:53:37.371Z,19.8
2022-10-19T12:54:39.875Z,19.7
2022-10-19T12:55:39.464Z,19.6
2022-10-19T12:56:37.513Z,19.4
2022-10-19T12:57:38.363Z,19.5
2022-10-19T12:58:45.011Z,19.5
2022-10-19T12:59:37.761Z,19.6
2022-10-19T13:00:40.530Z,19.6
2022-10-19T13:01:39.337Z,19.7
2022-10-19T13:02:37.877Z,19.7
2022-10-19T13:03:39.391Z,19.5
2022-10-19T13:05:54.234Z,19.6
2022-10-19T13:05:54.795Z,19.7
2022-10-19T13:06:38.158Z,19.8
2022-10-19T13:07:38.377Z,19.6
2022-10-19T13:08:39.535Z,19.6
2022-10-19T13:09:38.418Z,19.7
2022-10-19T13:10:38.342Z,19.8
2022-10-19T13:11:54.313Z,19.5
2022-10-19T13:12:38.792Z,19.5
2022-10-19T13:13:48.814Z,19.6
2022-10-19T13:14:39.167Z,19.4
2022-10-19T13:15:39.690Z,19.4
2022-10-19T13:16:43.684Z,19.5
2022-10-19T13:17:40.485Z,19.4
2022-10-19T13:18:38.793Z,19.3
2022-10-19T13:19:38.855Z,19
2022-10-19T13:21:39.009Z,19.2
2022-10-19T13:22:39.037Z,19.2
2022-10-19T13:23:42.273Z,19
2022-10-19T13:25:46.444Z,18.7
2022-10-19T13:26:39.377Z,18.7
2022-10-19T13:27:39.634Z,18.7
2022-10-19T13:28:39.387Z,18.6
2022-10-19T13:29:47.289Z,18.6
2022-10-19T13:30:39.512Z,18.6
2022-10-19T13:31:40.158Z,18.9
2022-10-19T13:32:40.977Z,19
2022-10-19T13:33:40.717Z,18.8
2022-10-19T13:34:39.750Z,18.6
2022-10-19T13:35:41.668Z,18.5
2022-10-19T13:36:39.830Z,18.3
2022-10-19T13:37:40.508Z,18.3
2022-10-19T13:39:08.824Z,18.1
2022-10-19T13:39:51.868Z,18.1
2022-10-19T13:41:03.656Z,18
2022-10-19T13:42:02.970Z,18
2022-10-19T13:42:40.647Z,18
2022-10-19T13:43:40.202Z,18
2022-10-19T13:44:40.552Z,18
2022-10-19T13:45:41.344Z,18
2022-10-19T13:46:41.573Z,17.9
2022-10-19T13:47:44.292Z,18
2022-10-19T13:48:40.490Z,18
2022-10-19T13:49:40.566Z,17.8
2022-10-19T13:50:40.596Z,17.9
2022-10-19T13:51:40.663Z,17.8
2022-10-19T13:52:40.708Z,17.6
2022-10-19T13:53:42.399Z,17.6
2022-10-19T13:54:40.839Z,17.8
2022-10-19T13:55:44.034Z,17.7
2022-10-19T13:56:41.995Z,17.6